Portada
METAR-TAF:

METAR-TAF

Aeroports :

Le Havre, França

latitud: 49-31N, longitud: 000-04E, altitud: 100 m

Observació

L'informe es va fer fa 28 minuts, a les 13:30 UTC
Vent 14 kt del Est/Nord-Est, variant entre Nord-Est i Est/Sud-Est
Temperatura 10°C
Humitat 50%
Pressió 1027 hPa
Visibilitat 10 km o més
Cel ennuvolat a una alçada de 4500 ft

METAR: LFOH 311330Z AUTO 07014KT 050V110 9999 BKN045 10/00 Q1027 NOSIG

Hora: 15:58 (13:58 UTC)

Pronòstic

L'informe es va fer fa 2 hores i 58 minuts, a les 11:00 UTC
Pronòstic vàlid del 31 a les 12 UTC al 01 a les 12 UTC
Vent 15 kt del Est
Visibilitat 10 km o més
Núvols disperses a una alçada de 3000 ft

TAF: LFOH 311100Z 3112/0112 08015KT 9999 SCT030

Observacions i pronòstics meteorològics de més de 4000 aeroports (METAR i TAF).

Les estacions disponibles són els punts grocs i vermells al mapa.

Posi el ratolí al punt desitjat per veure el nom de l'estació.

Feu clic per veure les observacions i els pronòstics meteorològics.

Per canviar el mapa: feu clic els botons verds amb una creu de color negre per apropar; al botó verd amb un guió per allunyar la imatge; o en les fletxes verdes per a mapes adjacents.


METAR-TAF: